Union, KY

11:55 AM EDT on October 02, 2014 (GMT -0400)
APRSWXNET Union KY US | Change Station
CLOSE
Current Station
Personal Weather Station
Location: Florence, KY
Elevation: 908 ft
Nearby Weather Stations

Elev 908 ft 38.95 °N, 84.66 °W | Updated 27 minutes ago

Mostly Cloudy
Mostly Cloudy
76.0 °F
Feels Like 78 °F
N
4.0
Wind Variable Wind from South
Gusts 6.0 mph

Today
High -- | Low -- °F
--% Chance of Precip.
Yesterday
High -- | Low -- °F
Precip. -- in
7:35 AM 7:19 PM
First Quarter, 60% visible
Pressure 30.01 in
Visibility 10.0 miles
Clouds Mostly Cloudy 25000 ft
Heat Index 78 °F
Dew Point 64.0 °F
Humidity 66%
Rainfall 0.00 in
Snow Depth Not available.
UV 2 out of 12
Pollen 3.50 out of 12
Air Quality Not available.
Flu Activity Not available.
METAR KCVG 021452Z 21009KT 10SM BKN250 24/14 A3003 RMK AO2 SLP160 T02390144 50001

More Conditions Fewer Conditions

Pressure 30.01 in
Visibility 10.0 miles
Clouds Mostly Cloudy 25000 ft
Heat Index 78 °F
Dew Point 64.0 °F
Humidity 66%
Rainfall 0.00 in
Snow Depth Not available.
UV 2 out of 12
Pollen 3.50 out of 12
Air Quality Not available.
Flu Activity Not available.
METAR KCVG 021452Z 21009KT 10SM BKN250 24/14 A3003 RMK AO2 SLP160 T02390144 50001

More Conditions Fewer Conditions

10-Day Weather Forecast

Almanac

Astronomy

Oct. 02, 2014 Rise Set
Actual Time 7:35 AM EDT 7:19 PM EDT
Civil Twilight 7:08 AM EDT 7:46 PM EDT
Nautical Twilight 6:38 AM EDT 8:17 PM EDT
Astronomical Twilight 6:06 AM EDT 8:48 PM EDT
Moon 3:22 PM EDT 12:54 AM EDT
Length of Visible Light 12h 37m
Length of Day
11h 44m
Tomorrow will be 2m 31s shorter.
First Quarter, 60% of the Moon is Illuminated
Today
First Quarter
Oct 8
Full
Oct 15
Last Quarter
Oct 23
New
Oct 30
First Quarter

Today's Extremes

State Highs State Lows

Community

WunderPhotos

Upload Photos

1,758,276 photos uploaded!

WunderBlogs® & News

Nearby

Snow Depth

Station Depth Elevation
No new snow has been reported.

Earthquake Activity

City Distance Mag. Time & Date
No recent earthquake activity has been reported nearby.
Minimum magnitude displayed is 2.5.

Coastal Water Temperatures

Place Temperature
No Stations Reporting

Nearby Weather Stations